sensor_id;sensor_type;location;lat;lon;timestamp;temperature;humidity
14850;DHT22;7517;48.400;11.770;2023-04-03T00:00:56;9.10;64.30
14850;DHT22;7517;48.400;11.770;2023-04-03T00:03:24;9.00;65.00
14850;DHT22;7517;48.400;11.770;2023-04-03T00:05:51;9.00;64.10
14850;DHT22;7517;48.400;11.770;2023-04-03T00:08:20;9.00;64.10
14850;DHT22;7517;48.400;11.770;2023-04-03T00:10:48;9.00;64.00
14850;DHT22;7517;48.400;11.770;2023-04-03T00:13:16;9.00;64.00
14850;DHT22;7517;48.400;11.770;2023-04-03T00:15:44;9.00;64.10
14850;DHT22;7517;48.400;11.770;2023-04-03T00:18:11;9.00;64.20
14850;DHT22;7517;48.400;11.770;2023-04-03T00:20:39;9.00;64.30
14850;DHT22;7517;48.400;11.770;2023-04-03T00:23:06;9.00;64.30
14850;DHT22;7517;48.400;11.770;2023-04-03T00:25:35;8.90;64.40
14850;DHT22;7517;48.400;11.770;2023-04-03T00:28:03;8.90;64.30
14850;DHT22;7517;48.400;11.770;2023-04-03T00:30:32;8.90;64.40
14850;DHT22;7517;48.400;11.770;2023-04-03T00:33:00;9.00;64.70
14850;DHT22;7517;48.400;11.770;2023-04-03T00:35:28;9.00;64.50
14850;DHT22;7517;48.400;11.770;2023-04-03T00:37:56;8.90;64.30
14850;DHT22;7517;48.400;11.770;2023-04-03T00:40:24;8.90;64.40
14850;DHT22;7517;48.400;11.770;2023-04-03T00:42:57;8.90;64.50
14850;DHT22;7517;48.400;11.770;2023-04-03T00:45:31;9.00;64.30
14850;DHT22;7517;48.400;11.770;2023-04-03T00:48:03;9.00;64.60
14850;DHT22;7517;48.400;11.770;2023-04-03T00:50:36;9.00;64.20
14850;DHT22;7517;48.400;11.770;2023-04-03T00:53:08;9.00;64.30
14850;DHT22;7517;48.400;11.770;2023-04-03T00:55:39;8.90;64.20
14850;DHT22;7517;48.400;11.770;2023-04-03T00:58:10;8.90;64.30
14850;DHT22;7517;48.400;11.770;2023-04-03T01:00:44;9.00;64.50
14850;DHT22;7517;48.400;11.770;2023-04-03T01:03:14;8.90;64.30
14850;DHT22;7517;48.400;11.770;2023-04-03T01:05:41;8.90;64.20
14850;DHT22;7517;48.400;11.770;2023-04-03T01:08:09;8.90;64.20
14850;DHT22;7517;48.400;11.770;2023-04-03T01:10:37;8.90;64.90
14850;DHT22;7517;48.400;11.770;2023-04-03T01:13:18;8.90;64.20
14850;DHT22;7517;48.400;11.770;2023-04-03T01:15:46;8.90;64.20
14850;DHT22;7517;48.400;11.770;2023-04-03T01:18:14;8.90;64.20
14850;DHT22;7517;48.400;11.770;2023-04-03T01:21:06;9.00;64.40
14850;DHT22;7517;48.400;11.770;2023-04-03T01:24:25;9.00;64.30
14850;DHT22;7517;48.400;11.770;2023-04-03T01:26:59;9.00;64.30
14850;DHT22;7517;48.400;11.770;2023-04-03T01:29:30;9.00;64.40
14850;DHT22;7517;48.400;11.770;2023-04-03T01:32:00;9.00;64.10
14850;DHT22;7517;48.400;11.770;2023-04-03T01:34:30;9.00;64.10
14850;DHT22;7517;48.400;11.770;2023-04-03T01:36:57;9.00;64.10
14850;DHT22;7517;48.400;11.770;2023-04-03T01:39:24;9.00;64.00
14850;DHT22;7517;48.400;11.770;2023-04-03T01:41:52;9.00;63.90
14850;DHT22;7517;48.400;11.770;2023-04-03T01:44:19;9.00;63.80
14850;DHT22;7517;48.400;11.770;2023-04-03T01:46:47;9.00;63.60
14850;DHT22;7517;48.400;11.770;2023-04-03T01:49:16;9.00;63.80
14850;DHT22;7517;48.400;11.770;2023-04-03T01:51:43;8.90;63.80
14850;DHT22;7517;48.400;11.770;2023-04-03T01:54:10;8.90;63.90
14850;DHT22;7517;48.400;11.770;2023-04-03T01:56:37;8.90;64.00
14850;DHT22;7517;48.400;11.770;2023-04-03T01:59:05;8.90;64.00
14850;DHT22;7517;48.400;11.770;2023-04-03T02:01:32;8.90;64.00
14850;DHT22;7517;48.400;11.770;2023-04-03T02:03:59;8.90;64.20
14850;DHT22;7517;48.400;11.770;2023-04-03T02:06:28;8.90;64.30
14850;DHT22;7517;48.400;11.770;2023-04-03T02:08:55;8.90;64.00
14850;DHT22;7517;48.400;11.770;2023-04-03T02:11:23;8.90;64.20
14850;DHT22;7517;48.400;11.770;2023-04-03T02:13:50;8.90;64.10
14850;DHT22;7517;48.400;11.770;2023-04-03T02:16:17;8.90;64.10
14850;DHT22;7517;48.400;11.770;2023-04-03T02:18:44;8.90;64.10
14850;DHT22;7517;48.400;11.770;2023-04-03T02:21:12;8.90;64.00
14850;DHT22;7517;48.400;11.770;2023-04-03T02:23:40;8.80;63.90
14850;DHT22;7517;48.400;11.770;2023-04-03T02:26:09;8.80;63.90
14850;DHT22;7517;48.400;11.770;2023-04-03T02:28:38;8.80;63.90
14850;DHT22;7517;48.400;11.770;2023-04-03T02:31:07;8.80;63.80
14850;DHT22;7517;48.400;11.770;2023-04-03T02:33:36;8.80;64.00
14850;DHT22;7517;48.400;11.770;2023-04-03T02:36:05;8.80;64.20
14850;DHT22;7517;48.400;11.770;2023-04-03T02:38:33;8.80;64.10
14850;DHT22;7517;48.400;11.770;2023-04-03T02:41:04;8.80;64.20
14850;DHT22;7517;48.400;11.770;2023-04-03T02:43:32;8.80;64.30
14850;DHT22;7517;48.400;11.770;2023-04-03T02:46:00;8.70;64.30
14850;DHT22;7517;48.400;11.770;2023-04-03T02:48:28;8.80;64.30
14850;DHT22;7517;48.400;11.770;2023-04-03T02:50:55;8.80;64.30
14850;DHT22;7517;48.400;11.770;2023-04-03T02:53:22;8.80;64.30
14850;DHT22;7517;48.400;11.770;2023-04-03T02:55:50;8.80;64.30
14850;DHT22;7517;48.400;11.770;2023-04-03T02:58:19;8.80;64.10
14850;DHT22;7517;48.400;11.770;2023-04-03T03:00:46;8.80;64.10
14850;DHT22;7517;48.400;11.770;2023-04-03T03:03:13;8.80;64.20
14850;DHT22;7517;48.400;11.770;2023-04-03T03:05:41;8.80;64.50
14850;DHT22;7517;48.400;11.770;2023-04-03T03:08:08;8.80;64.30
14850;DHT22;7517;48.400;11.770;2023-04-03T03:10:36;8.80;64.30
14850;DHT22;7517;48.400;11.770;2023-04-03T03:13:03;8.80;64.30
14850;DHT22;7517;48.400;11.770;2023-04-03T03:15:32;8.80;64.50
14850;DHT22;7517;48.400;11.770;2023-04-03T03:17:59;8.80;64.20
14850;DHT22;7517;48.400;11.770;2023-04-03T03:20:26;8.80;64.30
14850;DHT22;7517;48.400;11.770;2023-04-03T03:22:53;8.80;64.20
14850;DHT22;7517;48.400;11.770;2023-04-03T03:25:21;8.80;64.50
14850;DHT22;7517;48.400;11.770;2023-04-03T03:27:48;8.70;64.40
14850;DHT22;7517;48.400;11.770;2023-04-03T03:30:15;8.70;64.50
14850;DHT22;7517;48.400;11.770;2023-04-03T03:32:44;8.70;64.40
14850;DHT22;7517;48.400;11.770;2023-04-03T03:35:12;8.70;64.40
14850;DHT22;7517;48.400;11.770;2023-04-03T03:37:39;8.70;64.50
14850;DHT22;7517;48.400;11.770;2023-04-03T03:40:07;8.70;64.60
14850;DHT22;7517;48.400;11.770;2023-04-03T03:42:38;8.70;64.70
14850;DHT22;7517;48.400;11.770;2023-04-03T03:45:06;8.70;64.70
14850;DHT22;7517;48.400;11.770;2023-04-03T03:47:35;8.70;64.90
14850;DHT22;7517;48.400;11.770;2023-04-03T03:50:12;8.70;64.90
14850;DHT22;7517;48.400;11.770;2023-04-03T03:52:40;8.70;64.80
14850;DHT22;7517;48.400;11.770;2023-04-03T03:55:07;8.70;64.70
14850;DHT22;7517;48.400;11.770;2023-04-03T03:57:35;8.70;64.70
14850;DHT22;7517;48.400;11.770;2023-04-03T04:00:02;8.70;64.70
14850;DHT22;7517;48.400;11.770;2023-04-03T04:02:33;8.70;64.60
14850;DHT22;7517;48.400;11.770;2023-04-03T04:05:00;8.70;64.70
14850;DHT22;7517;48.400;11.770;2023-04-03T04:07:29;8.70;64.80
14850;DHT22;7517;48.400;11.770;2023-04-03T04:09:56;8.70;64.60
14850;DHT22;7517;48.400;11.770;2023-04-03T04:12:23;8.80;64.50
14850;DHT22;7517;48.400;11.770;2023-04-03T04:14:51;8.80;64.50
14850;DHT22;7517;48.400;11.770;2023-04-03T04:17:18;8.70;64.50
14850;DHT22;7517;48.400;11.770;2023-04-03T04:19:46;8.70;64.50
14850;DHT22;7517;48.400;11.770;2023-04-03T04:22:14;8.70;64.50
14850;DHT22;7517;48.400;11.770;2023-04-03T04:24:42;8.70;64.70
14850;DHT22;7517;48.400;11.770;2023-04-03T04:27:10;8.70;64.80
14850;DHT22;7517;48.400;11.770;2023-04-03T04:29:37;8.80;64.90
14850;DHT22;7517;48.400;11.770;2023-04-03T04:32:04;8.70;64.80
14850;DHT22;7517;48.400;11.770;2023-04-03T04:34:32;8.70;64.70
14850;DHT22;7517;48.400;11.770;2023-04-03T04:36:59;8.70;64.80
14850;DHT22;7517;48.400;11.770;2023-04-03T04:39:26;8.80;64.80
14850;DHT22;7517;48.400;11.770;2023-04-03T04:41:55;8.70;64.80
14850;DHT22;7517;48.400;11.770;2023-04-03T04:44:22;8.80;64.60
14850;DHT22;7517;48.400;11.770;2023-04-03T04:46:50;8.70;64.60
14850;DHT22;7517;48.400;11.770;2023-04-03T04:49:17;8.70;64.70
14850;DHT22;7517;48.400;11.770;2023-04-03T04:51:44;8.70;64.60
14850;DHT22;7517;48.400;11.770;2023-04-03T04:54:12;8.80;64.60
14850;DHT22;7517;48.400;11.770;2023-04-03T04:56:39;8.70;64.50
14850;DHT22;7517;48.400;11.770;2023-04-03T04:59:08;8.70;64.70
14850;DHT22;7517;48.400;11.770;2023-04-03T05:01:35;8.70;64.70
14850;DHT22;7517;48.400;11.770;2023-04-03T05:04:03;8.70;64.70
14850;DHT22;7517;48.400;11.770;2023-04-03T05:06:30;8.70;64.70
14850;DHT22;7517;48.400;11.770;2023-04-03T05:08:58;8.70;64.70
14850;DHT22;7517;48.400;11.770;2023-04-03T05:11:26;8.70;64.60
14850;DHT22;7517;48.400;11.770;2023-04-03T05:13:53;8.70;64.70
14850;DHT22;7517;48.400;11.770;2023-04-03T05:16:22;8.70;64.60
14850;DHT22;7517;48.400;11.770;2023-04-03T05:18:51;8.70;64.50
14850;DHT22;7517;48.400;11.770;2023-04-03T05:21:18;8.70;64.60
14850;DHT22;7517;48.400;11.770;2023-04-03T05:23:47;8.80;64.80
14850;DHT22;7517;48.400;11.770;2023-04-03T05:26:14;8.70;64.70
14850;DHT22;7517;48.400;11.770;2023-04-03T05:28:41;8.80;64.70
14850;DHT22;7517;48.400;11.770;2023-04-03T05:31:09;8.80;64.70
14850;DHT22;7517;48.400;11.770;2023-04-03T05:33:38;8.80;64.70
14850;DHT22;7517;48.400;11.770;2023-04-03T05:36:06;8.80;64.60
14850;DHT22;7517;48.400;11.770;2023-04-03T05:38:35;8.80;64.40
14850;DHT22;7517;48.400;11.770;2023-04-03T05:41:02;8.80;64.50
14850;DHT22;7517;48.400;11.770;2023-04-03T05:43:30;8.80;65.20
14850;DHT22;7517;48.400;11.770;2023-04-03T05:45:59;8.80;64.50
14850;DHT22;7517;48.400;11.770;2023-04-03T05:48:26;8.80;64.70
14850;DHT22;7517;48.400;11.770;2023-04-03T05:50:55;8.80;64.70
14850;DHT22;7517;48.400;11.770;2023-04-03T05:53:27;8.80;64.70
14850;DHT22;7517;48.400;11.770;2023-04-03T05:55:56;8.90;64.90
14850;DHT22;7517;48.400;11.770;2023-04-03T05:58:24;8.80;64.70
14850;DHT22;7517;48.400;11.770;2023-04-03T06:00:52;8.90;64.60
14850;DHT22;7517;48.400;11.770;2023-04-03T06:03:19;8.90;64.60
14850;DHT22;7517;48.400;11.770;2023-04-03T06:05:48;8.90;64.50
14850;DHT22;7517;48.400;11.770;2023-04-03T06:08:17;8.90;64.60
14850;DHT22;7517;48.400;11.770;2023-04-03T06:10:44;8.90;64.60
14850;DHT22;7517;48.400;11.770;2023-04-03T06:13:13;8.90;64.60
14850;DHT22;7517;48.400;11.770;2023-04-03T06:15:41;9.00;64.70
14850;DHT22;7517;48.400;11.770;2023-04-03T06:18:13;9.00;64.70
14850;DHT22;7517;48.400;11.770;2023-04-03T06:20:41;9.10;64.70
14850;DHT22;7517;48.400;11.770;2023-04-03T06:23:09;9.10;64.60
14850;DHT22;7517;48.400;11.770;2023-04-03T06:25:40;9.10;64.50
14850;DHT22;7517;48.400;11.770;2023-04-03T06:28:08;9.20;64.40
14850;DHT22;7517;48.400;11.770;2023-04-03T06:30:37;9.20;64.50
14850;DHT22;7517;48.400;11.770;2023-04-03T06:33:06;9.20;64.50
14850;DHT22;7517;48.400;11.770;2023-04-03T06:35:33;9.30;65.40
14850;DHT22;7517;48.400;11.770;2023-04-03T06:38:03;9.30;65.00
14850;DHT22;7517;48.400;11.770;2023-04-03T06:40:35;9.40;65.10
14850;DHT22;7517;48.400;11.770;2023-04-03T06:43:04;9.40;65.20
14850;DHT22;7517;48.400;11.770;2023-04-03T06:45:31;9.50;65.20
14850;DHT22;7517;48.400;11.770;2023-04-03T06:47:59;9.50;65.00
14850;DHT22;7517;48.400;11.770;2023-04-03T06:50:26;9.60;64.90
14850;DHT22;7517;48.400;11.770;2023-04-03T06:52:54;9.70;65.00
14850;DHT22;7517;48.400;11.770;2023-04-03T06:55:22;9.70;65.00
14850;DHT22;7517;48.400;11.770;2023-04-03T06:57:49;9.80;64.90
14850;DHT22;7517;48.400;11.770;2023-04-03T07:00:20;9.80;64.60
14850;DHT22;7517;48.400;11.770;2023-04-03T07:02:47;9.90;64.40
14850;DHT22;7517;48.400;11.770;2023-04-03T07:05:15;9.90;64.20
14850;DHT22;7517;48.400;11.770;2023-04-03T07:07:44;9.90;63.90
14850;DHT22;7517;48.400;11.770;2023-04-03T07:10:13;10.00;64.00
14850;DHT22;7517;48.400;11.770;2023-04-03T07:12:40;10.00;63.90
14850;DHT22;7517;48.400;11.770;2023-04-03T07:15:08;10.00;63.60
14850;DHT22;7517;48.400;11.770;2023-04-03T07:17:39;10.00;63.50
14850;DHT22;7517;48.400;11.770;2023-04-03T07:20:08;10.00;63.50
14850;DHT22;7517;48.400;11.770;2023-04-03T07:22:36;10.10;63.20
14850;DHT22;7517;48.400;11.770;2023-04-03T07:25:05;10.10;63.00
14850;DHT22;7517;48.400;11.770;2023-04-03T07:27:33;10.00;62.80
14850;DHT22;7517;48.400;11.770;2023-04-03T07:30:01;10.10;62.80
14850;DHT22;7517;48.400;11.770;2023-04-03T07:32:28;10.10;62.60
14850;DHT22;7517;48.400;11.770;2023-04-03T07:34:58;10.10;62.60
14850;DHT22;7517;48.400;11.770;2023-04-03T07:37:25;10.10;62.60
14850;DHT22;7517;48.400;11.770;2023-04-03T07:39:53;10.10;62.50
14850;DHT22;7517;48.400;11.770;2023-04-03T07:42:22;10.10;62.70
14850;DHT22;7517;48.400;11.770;2023-04-03T07:44:50;10.10;62.70
14850;DHT22;7517;48.400;11.770;2023-04-03T07:47:17;10.10;62.60
14850;DHT22;7517;48.400;11.770;2023-04-03T07:49:45;10.10;62.60
14850;DHT22;7517;48.400;11.770;2023-04-03T07:52:15;10.10;62.80
14850;DHT22;7517;48.400;11.770;2023-04-03T07:54:42;10.20;63.00
14850;DHT22;7517;48.400;11.770;2023-04-03T07:57:10;10.20;63.00
14850;DHT22;7517;48.400;11.770;2023-04-03T07:59:37;10.30;62.90
14850;DHT22;7517;48.400;11.770;2023-04-03T08:02:05;10.30;62.30
14850;DHT22;7517;48.400;11.770;2023-04-03T08:04:33;10.30;62.30
14850;DHT22;7517;48.400;11.770;2023-04-03T08:07:01;10.30;62.40
14850;DHT22;7517;48.400;11.770;2023-04-03T08:09:29;10.40;62.70
14850;DHT22;7517;48.400;11.770;2023-04-03T08:11:57;10.40;62.60
14850;DHT22;7517;48.400;11.770;2023-04-03T08:14:24;10.40;62.50
14850;DHT22;7517;48.400;11.770;2023-04-03T08:16:52;10.50;62.70
14850;DHT22;7517;48.400;11.770;2023-04-03T08:19:19;10.50;62.80
14850;DHT22;7517;48.400;11.770;2023-04-03T08:21:47;10.60;62.80
14850;DHT22;7517;48.400;11.770;2023-04-03T08:24:14;10.70;62.90
14850;DHT22;7517;48.400;11.770;2023-04-03T08:26:43;10.70;62.80
14850;DHT22;7517;48.400;11.770;2023-04-03T08:29:10;10.80;62.60
14850;DHT22;7517;48.400;11.770;2023-04-03T08:31:39;10.90;62.60
14850;DHT22;7517;48.400;11.770;2023-04-03T08:34:06;11.00;63.10
14850;DHT22;7517;48.400;11.770;2023-04-03T08:36:34;11.00;62.40
14850;DHT22;7517;48.400;11.770;2023-04-03T08:39:01;11.10;62.40
14850;DHT22;7517;48.400;11.770;2023-04-03T08:41:34;11.20;62.20
14850;DHT22;7517;48.400;11.770;2023-04-03T08:44:17;11.20;62.10
14850;DHT22;7517;48.400;11.770;2023-04-03T08:47:11;11.30;61.70
14850;DHT22;7517;48.400;11.770;2023-04-03T08:49:49;11.40;61.50
14850;DHT22;7517;48.400;11.770;2023-04-03T08:52:22;11.50;61.80
14850;DHT22;7517;48.400;11.770;2023-04-03T08:54:56;11.50;61.60
14850;DHT22;7517;48.400;11.770;2023-04-03T08:57:29;11.60;61.30
14850;DHT22;7517;48.400;11.770;2023-04-03T09:00:06;11.70;61.00
14850;DHT22;7517;48.400;11.770;2023-04-03T09:02:44;11.80;60.30
14850;DHT22;7517;48.400;11.770;2023-04-03T09:05:16;11.80;60.10
14850;DHT22;7517;48.400;11.770;2023-04-03T09:07:49;11.80;59.80
14850;DHT22;7517;48.400;11.770;2023-04-03T09:10:27;11.80;59.70
14850;DHT22;7517;48.400;11.770;2023-04-03T09:13:01;11.80;59.40
14850;DHT22;7517;48.400;11.770;2023-04-03T09:15:35;11.80;59.20
14850;DHT22;7517;48.400;11.770;2023-04-03T09:18:06;11.80;59.20
14850;DHT22;7517;48.400;11.770;2023-04-03T09:20:45;11.80;59.20
14850;DHT22;7517;48.400;11.770;2023-04-03T09:23:24;11.90;59.30
14850;DHT22;7517;48.400;11.770;2023-04-03T09:26:02;11.90;59.00
14850;DHT22;7517;48.400;11.770;2023-04-03T09:28:36;11.90;58.70
14850;DHT22;7517;48.400;11.770;2023-04-03T09:31:18;12.00;58.70
14850;DHT22;7517;48.400;11.770;2023-04-03T09:33:50;12.00;58.60
14850;DHT22;7517;48.400;11.770;2023-04-03T09:36:44;12.00;58.50
14850;DHT22;7517;48.400;11.770;2023-04-03T09:39:16;12.00;57.60
14850;DHT22;7517;48.400;11.770;2023-04-03T09:42:00;12.00;58.40
14850;DHT22;7517;48.400;11.770;2023-04-03T09:44:32;12.10;57.90
14850;DHT22;7517;48.400;11.770;2023-04-03T09:47:18;12.10;58.10
14850;DHT22;7517;48.400;11.770;2023-04-03T09:49:50;12.20;57.90
14850;DHT22;7517;48.400;11.770;2023-04-03T09:52:22;12.20;59.00
14850;DHT22;7517;48.400;11.770;2023-04-03T09:54:54;12.30;58.10
14850;DHT22;7517;48.400;11.770;2023-04-03T09:57:35;12.30;57.80
14850;DHT22;7517;48.400;11.770;2023-04-03T10:00:06;12.30;57.30
14850;DHT22;7517;48.400;11.770;2023-04-03T10:02:51;12.30;57.30
14850;DHT22;7517;48.400;11.770;2023-04-03T10:05:30;12.40;57.50
14850;DHT22;7517;48.400;11.770;2023-04-03T10:08:22;12.50;56.80
14850;DHT22;7517;48.400;11.770;2023-04-03T10:11:08;12.50;56.70
14850;DHT22;7517;48.400;11.770;2023-04-03T10:13:51;12.50;56.30
14850;DHT22;7517;48.400;11.770;2023-04-03T10:16:26;12.50;56.40
14850;DHT22;7517;48.400;11.770;2023-04-03T10:19:05;12.60;56.30
14850;DHT22;7517;48.400;11.770;2023-04-03T10:21:48;12.60;55.40
14850;DHT22;7517;48.400;11.770;2023-04-03T10:24:25;12.60;55.70
14850;DHT22;7517;48.400;11.770;2023-04-03T10:27:02;12.60;55.70
14850;DHT22;7517;48.400;11.770;2023-04-03T10:29:40;12.60;55.60
14850;DHT22;7517;48.400;11.770;2023-04-03T10:32:49;12.60;55.40
14850;DHT22;7517;48.400;11.770;2023-04-03T10:35:37;12.70;54.40
14850;DHT22;7517;48.400;11.770;2023-04-03T10:38:17;12.70;54.80
14850;DHT22;7517;48.400;11.770;2023-04-03T10:40:55;12.80;55.60
14850;DHT22;7517;48.400;11.770;2023-04-03T10:43:34;12.90;55.80
14850;DHT22;7517;48.400;11.770;2023-04-03T10:46:09;13.10;55.40
14850;DHT22;7517;48.400;11.770;2023-04-03T10:49:04;13.20;55.30
14850;DHT22;7517;48.400;11.770;2023-04-03T10:51:45;13.20;54.00
14850;DHT22;7517;48.400;11.770;2023-04-03T10:54:18;13.20;54.20
14850;DHT22;7517;48.400;11.770;2023-04-03T10:56:54;13.20;53.90
14850;DHT22;7517;48.400;11.770;2023-04-03T10:59:27;13.10;53.90
14850;DHT22;7517;48.400;11.770;2023-04-03T11:02:00;13.10;54.00
14850;DHT22;7517;48.400;11.770;2023-04-03T11:04:36;13.10;54.40
14850;DHT22;7517;48.400;11.770;2023-04-03T11:07:12;13.10;54.20
14850;DHT22;7517;48.400;11.770;2023-04-03T11:09:46;13.10;53.60
14850;DHT22;7517;48.400;11.770;2023-04-03T11:12:21;13.00;52.90
14850;DHT22;7517;48.400;11.770;2023-04-03T11:14:55;13.00;53.40
14850;DHT22;7517;48.400;11.770;2023-04-03T11:17:28;13.00;53.60
14850;DHT22;7517;48.400;11.770;2023-04-03T11:20:08;13.00;53.50
14850;DHT22;7517;48.400;11.770;2023-04-03T11:22:48;13.00;52.90
14850;DHT22;7517;48.400;11.770;2023-04-03T11:25:21;13.00;52.70
14850;DHT22;7517;48.400;11.770;2023-04-03T11:27:54;13.00;53.00
14850;DHT22;7517;48.400;11.770;2023-04-03T11:30:27;13.00;53.10
14850;DHT22;7517;48.400;11.770;2023-04-03T11:36:20;13.10;52.30
14850;DHT22;7517;48.400;11.770;2023-04-03T11:38:56;13.20;52.90
14850;DHT22;7517;48.400;11.770;2023-04-03T11:41:28;13.20;52.70
14850;DHT22;7517;48.400;11.770;2023-04-03T11:44:01;13.30;52.90
14850;DHT22;7517;48.400;11.770;2023-04-03T11:46:49;13.40;52.60
14850;DHT22;7517;48.400;11.770;2023-04-03T11:49:50;13.40;52.10
14850;DHT22;7517;48.400;11.770;2023-04-03T11:53:01;13.50;51.50
14850;DHT22;7517;48.400;11.770;2023-04-03T11:55:54;13.50;51.70
14850;DHT22;7517;48.400;11.770;2023-04-03T11:58:26;13.50;51.60
14850;DHT22;7517;48.400;11.770;2023-04-03T12:00:59;13.50;51.60
14850;DHT22;7517;48.400;11.770;2023-04-03T12:03:56;13.50;51.80
14850;DHT22;7517;48.400;11.770;2023-04-03T12:10:18;13.60;51.80
14850;DHT22;7517;48.400;11.770;2023-04-03T12:13:12;13.60;51.40
14850;DHT22;7517;48.400;11.770;2023-04-03T12:16:01;13.60;50.90
14850;DHT22;7517;48.400;11.770;2023-04-03T12:18:58;13.50;50.30
14850;DHT22;7517;48.400;11.770;2023-04-03T12:22:06;13.40;50.40
14850;DHT22;7517;48.400;11.770;2023-04-03T12:24:47;13.30;49.80
14850;DHT22;7517;48.400;11.770;2023-04-03T12:27:24;13.20;50.80
14850;DHT22;7517;48.400;11.770;2023-04-03T12:30:14;13.10;50.70
14850;DHT22;7517;48.400;11.770;2023-04-03T12:33:12;13.00;50.10
14850;DHT22;7517;48.400;11.770;2023-04-03T12:36:01;13.00;49.90
14850;DHT22;7517;48.400;11.770;2023-04-03T12:39:06;12.90;50.10
14850;DHT22;7517;48.400;11.770;2023-04-03T12:41:51;12.80;49.30
14850;DHT22;7517;48.400;11.770;2023-04-03T12:44:42;12.80;49.50
14850;DHT22;7517;48.400;11.770;2023-04-03T12:47:29;12.70;49.10
14850;DHT22;7517;48.400;11.770;2023-04-03T12:50:04;12.60;49.60
14850;DHT22;7517;48.400;11.770;2023-04-03T12:52:46;12.50;49.70
14850;DHT22;7517;48.400;11.770;2023-04-03T12:55:19;12.40;49.80
14850;DHT22;7517;48.400;11.770;2023-04-03T12:57:47;12.30;50.00
14850;DHT22;7517;48.400;11.770;2023-04-03T13:00:21;12.30;50.10
14850;DHT22;7517;48.400;11.770;2023-04-03T13:02:59;12.30;50.50
14850;DHT22;7517;48.400;11.770;2023-04-03T13:05:28;12.30;49.90
14850;DHT22;7517;48.400;11.770;2023-04-03T13:08:00;12.30;49.50
14850;DHT22;7517;48.400;11.770;2023-04-03T13:10:31;12.30;49.40
14850;DHT22;7517;48.400;11.770;2023-04-03T13:13:17;12.30;49.50
14850;DHT22;7517;48.400;11.770;2023-04-03T13:15:47;12.30;49.70
14850;DHT22;7517;48.400;11.770;2023-04-03T13:18:27;12.30;50.10
14850;DHT22;7517;48.400;11.770;2023-04-03T13:21:01;12.40;49.60
14850;DHT22;7517;48.400;11.770;2023-04-03T13:23:34;12.40;49.80
14850;DHT22;7517;48.400;11.770;2023-04-03T13:26:04;12.60;50.30
14850;DHT22;7517;48.400;11.770;2023-04-03T13:28:34;12.70;49.70
14850;DHT22;7517;48.400;11.770;2023-04-03T13:31:07;12.70;49.50
14850;DHT22;7517;48.400;11.770;2023-04-03T13:33:55;12.70;49.20
14850;DHT22;7517;48.400;11.770;2023-04-03T13:36:27;12.70;48.70
14850;DHT22;7517;48.400;11.770;2023-04-03T13:38:59;12.70;49.30
14850;DHT22;7517;48.400;11.770;2023-04-03T13:41:31;12.60;48.60
14850;DHT22;7517;48.400;11.770;2023-04-03T13:44:28;12.60;48.30
14850;DHT22;7517;48.400;11.770;2023-04-03T13:47:00;12.50;47.20
14850;DHT22;7517;48.400;11.770;2023-04-03T13:49:58;12.40;47.90
14850;DHT22;7517;48.400;11.770;2023-04-03T13:52:30;12.30;47.50
14850;DHT22;7517;48.400;11.770;2023-04-03T13:55:09;12.30;47.30
14850;DHT22;7517;48.400;11.770;2023-04-03T13:57:53;12.20;46.80
14850;DHT22;7517;48.400;11.770;2023-04-03T14:00:34;12.10;46.90
14850;DHT22;7517;48.400;11.770;2023-04-03T14:03:13;12.00;46.90
14850;DHT22;7517;48.400;11.770;2023-04-03T14:05:46;12.00;46.50
14850;DHT22;7517;48.400;11.770;2023-04-03T14:08:13;11.90;46.90
14850;DHT22;7517;48.400;11.770;2023-04-03T14:10:41;11.90;46.90
14850;DHT22;7517;48.400;11.770;2023-04-03T14:13:12;11.80;47.00
14850;DHT22;7517;48.400;11.770;2023-04-03T14:15:42;11.80;46.60
14850;DHT22;7517;48.400;11.770;2023-04-03T14:18:12;11.80;46.90
14850;DHT22;7517;48.400;11.770;2023-04-03T14:20:40;11.80;46.50
14850;DHT22;7517;48.400;11.770;2023-04-03T14:23:09;11.80;46.80
14850;DHT22;7517;48.400;11.770;2023-04-03T14:25:37;11.80;46.90
14850;DHT22;7517;48.400;11.770;2023-04-03T14:28:15;11.80;47.20
14850;DHT22;7517;48.400;11.770;2023-04-03T14:30:45;11.80;46.50
14850;DHT22;7517;48.400;11.770;2023-04-03T14:33:15;11.90;46.50
14850;DHT22;7517;48.400;11.770;2023-04-03T14:35:44;11.90;46.50
14850;DHT22;7517;48.400;11.770;2023-04-03T14:38:21;11.90;46.70
14850;DHT22;7517;48.400;11.770;2023-04-03T14:40:51;12.00;46.30
14850;DHT22;7517;48.400;11.770;2023-04-03T14:43:20;12.00;46.10
14850;DHT22;7517;48.400;11.770;2023-04-03T14:45:49;12.00;46.60
14850;DHT22;7517;48.400;11.770;2023-04-03T14:48:20;12.00;46.90
14850;DHT22;7517;48.400;11.770;2023-04-03T14:50:51;12.00;46.80
14850;DHT22;7517;48.400;11.770;2023-04-03T14:53:21;12.00;47.00
14850;DHT22;7517;48.400;11.770;2023-04-03T14:55:51;12.00;46.90
14850;DHT22;7517;48.400;11.770;2023-04-03T14:58:20;12.10;46.60
14850;DHT22;7517;48.400;11.770;2023-04-03T15:00:47;12.10;46.60
14850;DHT22;7517;48.400;11.770;2023-04-03T15:03:17;12.20;46.80
14850;DHT22;7517;48.400;11.770;2023-04-03T15:05:48;12.20;46.70
14850;DHT22;7517;48.400;11.770;2023-04-03T15:08:19;12.20;46.50
14850;DHT22;7517;48.400;11.770;2023-04-03T15:10:50;12.20;46.40
14850;DHT22;7517;48.400;11.770;2023-04-03T15:13:18;12.20;46.50
14850;DHT22;7517;48.400;11.770;2023-04-03T15:15:49;12.20;46.20
14850;DHT22;7517;48.400;11.770;2023-04-03T15:18:19;12.20;46.20
14850;DHT22;7517;48.400;11.770;2023-04-03T15:20:49;12.10;45.90
14850;DHT22;7517;48.400;11.770;2023-04-03T15:23:18;12.00;46.00
14850;DHT22;7517;48.400;11.770;2023-04-03T15:25:53;12.00;45.90
14850;DHT22;7517;48.400;11.770;2023-04-03T15:28:25;12.00;45.80
14850;DHT22;7517;48.400;11.770;2023-04-03T15:30:55;12.00;46.10
14850;DHT22;7517;48.400;11.770;2023-04-03T15:33:23;12.00;46.30
14850;DHT22;7517;48.400;11.770;2023-04-03T15:35:51;12.00;46.20
14850;DHT22;7517;48.400;11.770;2023-04-03T15:38:18;12.10;46.30
14850;DHT22;7517;48.400;11.770;2023-04-03T15:40:46;12.10;46.10
14850;DHT22;7517;48.400;11.770;2023-04-03T15:43:15;12.10;46.20
14850;DHT22;7517;48.400;11.770;2023-04-03T15:45:43;12.10;45.90
14850;DHT22;7517;48.400;11.770;2023-04-03T15:48:12;12.10;46.10
14850;DHT22;7517;48.400;11.770;2023-04-03T15:50:41;12.10;46.20
14850;DHT22;7517;48.400;11.770;2023-04-03T15:53:09;12.00;46.30
14850;DHT22;7517;48.400;11.770;2023-04-03T15:55:38;12.00;46.00
14850;DHT22;7517;48.400;11.770;2023-04-03T15:58:07;11.90;46.30
14850;DHT22;7517;48.400;11.770;2023-04-03T16:00:38;11.90;46.00
14850;DHT22;7517;48.400;11.770;2023-04-03T16:03:09;11.80;46.00
14850;DHT22;7517;48.400;11.770;2023-04-03T16:05:39;11.70;46.00
14850;DHT22;7517;48.400;11.770;2023-04-03T16:08:08;11.70;46.10
14850;DHT22;7517;48.400;11.770;2023-04-03T16:10:38;11.60;46.00
14850;DHT22;7517;48.400;11.770;2023-04-03T16:13:06;11.60;46.20
14850;DHT22;7517;48.400;11.770;2023-04-03T16:15:34;11.50;46.40